sensor_id;sensor_type;location;lat;lon;timestamp;temperature;humidity
66752;SHT31;53663;42.676;23.238;2022-12-13T00:01:50;1.02;78.51
66752;SHT31;53663;42.676;23.238;2022-12-13T00:04:17;0.95;78.27
66752;SHT31;53663;42.676;23.238;2022-12-13T00:06:42;0.92;77.74
66752;SHT31;53663;42.676;23.238;2022-12-13T00:09:09;0.84;76.88
66752;SHT31;53663;42.676;23.238;2022-12-13T00:11:35;0.90;76.55
66752;SHT31;53663;42.676;23.238;2022-12-13T00:14:00;0.94;77.11
66752;SHT31;53663;42.676;23.238;2022-12-13T00:16:26;0.94;77.37
66752;SHT31;53663;42.676;23.238;2022-12-13T00:18:54;0.98;77.10
66752;SHT31;53663;42.676;23.238;2022-12-13T00:21:23;0.92;76.82
66752;SHT31;53663;42.676;23.238;2022-12-13T00:23:49;1.00;77.18
66752;SHT31;53663;42.676;23.238;2022-12-13T00:26:20;1.01;76.82
66752;SHT31;53663;42.676;23.238;2022-12-13T00:28:46;0.94;77.39
66752;SHT31;53663;42.676;23.238;2022-12-13T00:31:14;0.81;76.99
66752;SHT31;53663;42.676;23.238;2022-12-13T00:33:39;0.84;76.99
66752;SHT31;53663;42.676;23.238;2022-12-13T00:36:06;0.84;77.05
66752;SHT31;53663;42.676;23.238;2022-12-13T00:38:32;0.81;77.04
66752;SHT31;53663;42.676;23.238;2022-12-13T00:40:58;0.77;76.62
66752;SHT31;53663;42.676;23.238;2022-12-13T00:43:24;0.71;77.31
66752;SHT31;53663;42.676;23.238;2022-12-13T00:45:49;0.71;77.57
66752;SHT31;53663;42.676;23.238;2022-12-13T00:48:15;0.71;77.69
66752;SHT31;53663;42.676;23.238;2022-12-13T00:50:40;0.80;77.66
66752;SHT31;53663;42.676;23.238;2022-12-13T00:53:06;0.81;77.76
66752;SHT31;53663;42.676;23.238;2022-12-13T00:55:31;0.74;77.77
66752;SHT31;53663;42.676;23.238;2022-12-13T00:57:57;0.76;77.65
66752;SHT31;53663;42.676;23.238;2022-12-13T01:00:22;0.76;77.75
66752;SHT31;53663;42.676;23.238;2022-12-13T01:02:51;0.77;77.56
66752;SHT31;53663;42.676;23.238;2022-12-13T01:05:17;0.70;77.54
66752;SHT31;53663;42.676;23.238;2022-12-13T01:07:43;0.70;77.77
66752;SHT31;53663;42.676;23.238;2022-12-13T01:10:10;0.77;77.91
66752;SHT31;53663;42.676;23.238;2022-12-13T01:12:36;0.79;78.17
66752;SHT31;53663;42.676;23.238;2022-12-13T01:15:02;0.79;77.79
66752;SHT31;53663;42.676;23.238;2022-12-13T01:17:27;0.84;77.88
66752;SHT31;53663;42.676;23.238;2022-12-13T01:19:55;0.88;78.11
66752;SHT31;53663;42.676;23.238;2022-12-13T01:22:20;0.94;77.74
66752;SHT31;53663;42.676;23.238;2022-12-13T01:24:46;0.97;77.38
66752;SHT31;53663;42.676;23.238;2022-12-13T01:27:12;0.95;77.30
66752;SHT31;53663;42.676;23.238;2022-12-13T01:29:37;0.83;77.24
66752;SHT31;53663;42.676;23.238;2022-12-13T01:32:03;0.87;77.68
66752;SHT31;53663;42.676;23.238;2022-12-13T01:34:29;0.83;77.45
66752;SHT31;53663;42.676;23.238;2022-12-13T01:36:55;0.83;77.46
66752;SHT31;53663;42.676;23.238;2022-12-13T01:39:21;0.80;77.62
66752;SHT31;53663;42.676;23.238;2022-12-13T01:41:49;0.80;77.15
66752;SHT31;53663;42.676;23.238;2022-12-13T01:47:26;0.77;76.23
66752;SHT31;53663;42.676;23.238;2022-12-13T01:49:54;0.69;76.12
66752;SHT31;53663;42.676;23.238;2022-12-13T01:52:21;0.74;76.19
66752;SHT31;53663;42.676;23.238;2022-12-13T01:54:49;0.71;76.17
66752;SHT31;53663;42.676;23.238;2022-12-13T01:57:17;0.57;76.05
66752;SHT31;53663;42.676;23.238;2022-12-13T01:59:43;0.57;76.34
66752;SHT31;53663;42.676;23.238;2022-12-13T02:02:11;0.42;76.47
66752;SHT31;53663;42.676;23.238;2022-12-13T02:04:47;0.43;76.73
66752;SHT31;53663;42.676;23.238;2022-12-13T02:07:17;0.46;76.86
66752;SHT31;53663;42.676;23.238;2022-12-13T02:09:44;0.53;76.65
66752;SHT31;53663;42.676;23.238;2022-12-13T02:12:11;0.53;76.44
66752;SHT31;53663;42.676;23.238;2022-12-13T02:14:37;0.57;75.92
66752;SHT31;53663;42.676;23.238;2022-12-13T02:30:42;0.25;76.65
66752;SHT31;53663;42.676;23.238;2022-12-13T02:33:28;0.25;76.63
66752;SHT31;53663;42.676;23.238;2022-12-13T02:39:17;0.04;76.34
66752;SHT31;53663;42.676;23.238;2022-12-13T02:41:51;0.02;76.63
66752;SHT31;53663;42.676;23.238;2022-12-13T02:44:24;0.09;75.95
66752;SHT31;53663;42.676;23.238;2022-12-13T02:47:03;0.13;75.80
66752;SHT31;53663;42.676;23.238;2022-12-13T02:49:33;0.25;75.72
66752;SHT31;53663;42.676;23.238;2022-12-13T02:52:01;0.23;74.92
66752;SHT31;53663;42.676;23.238;2022-12-13T02:54:28;0.06;74.79
66752;SHT31;53663;42.676;23.238;2022-12-13T02:56:55;-0.09;75.08
66752;SHT31;53663;42.676;23.238;2022-12-13T02:59:24;-0.05;74.85
66752;SHT31;53663;42.676;23.238;2022-12-13T03:02:10;-0.09;74.64
66752;SHT31;53663;42.676;23.238;2022-12-13T03:11:07;-0.34;75.03
66752;SHT31;53663;42.676;23.238;2022-12-13T03:13:53;-0.49;75.33
66752;SHT31;53663;42.676;23.238;2022-12-13T03:18:45;-0.68;75.67
66752;SHT31;53663;42.676;23.238;2022-12-13T03:21:12;-0.56;75.82
66752;SHT31;53663;42.676;23.238;2022-12-13T03:23:38;-0.47;74.57
66752;SHT31;53663;42.676;23.238;2022-12-13T03:26:26;-0.47;74.62
66752;SHT31;53663;42.676;23.238;2022-12-13T03:28:52;-0.52;74.40
66752;SHT31;53663;42.676;23.238;2022-12-13T03:31:18;-0.44;74.68
66752;SHT31;53663;42.676;23.238;2022-12-13T03:33:44;-0.37;74.10
66752;SHT31;53663;42.676;23.238;2022-12-13T03:36:10;-0.32;73.61
66752;SHT31;53663;42.676;23.238;2022-12-13T03:38:37;-0.49;73.90
66752;SHT31;53663;42.676;23.238;2022-12-13T03:41:10;-0.63;74.06
66752;SHT31;53663;42.676;23.238;2022-12-13T03:43:36;-0.68;74.13
66752;SHT31;53663;42.676;23.238;2022-12-13T03:46:02;-0.80;74.78
66752;SHT31;53663;42.676;23.238;2022-12-13T03:48:28;-0.75;74.40
66752;SHT31;53663;42.676;23.238;2022-12-13T03:50:53;-0.70;74.37
66752;SHT31;53663;42.676;23.238;2022-12-13T03:53:20;-0.77;73.72
66752;SHT31;53663;42.676;23.238;2022-12-13T03:55:46;-0.73;73.80
66752;SHT31;53663;42.676;23.238;2022-12-13T03:58:12;-0.70;73.69
66752;SHT31;53663;42.676;23.238;2022-12-13T04:00:38;-0.78;72.97
66752;SHT31;53663;42.676;23.238;2022-12-13T04:03:03;-0.77;72.89
66752;SHT31;53663;42.676;23.238;2022-12-13T04:05:29;-0.78;73.08
66752;SHT31;53663;42.676;23.238;2022-12-13T04:07:55;-0.78;73.40
66752;SHT31;53663;42.676;23.238;2022-12-13T04:10:21;-0.75;73.54
66752;SHT31;53663;42.676;23.238;2022-12-13T04:12:46;-0.80;73.32
66752;SHT31;53663;42.676;23.238;2022-12-13T04:15:31;-0.75;73.65
66752;SHT31;53663;42.676;23.238;2022-12-13T04:17:56;-0.74;73.55
66752;SHT31;53663;42.676;23.238;2022-12-13T04:20:22;-0.75;73.70
66752;SHT31;53663;42.676;23.238;2022-12-13T04:22:47;-0.80;73.06
66752;SHT31;53663;42.676;23.238;2022-12-13T04:25:13;-0.80;73.71
66752;SHT31;53663;42.676;23.238;2022-12-13T04:27:38;-0.75;72.88
66752;SHT31;53663;42.676;23.238;2022-12-13T04:30:05;-0.81;72.63
66752;SHT31;53663;42.676;23.238;2022-12-13T04:32:31;-0.89;72.44
66752;SHT31;53663;42.676;23.238;2022-12-13T04:34:56;-0.84;72.97
66752;SHT31;53663;42.676;23.238;2022-12-13T04:37:22;-0.80;72.85
66752;SHT31;53663;42.676;23.238;2022-12-13T04:39:47;-0.80;72.56
66752;SHT31;53663;42.676;23.238;2022-12-13T04:42:13;-0.80;72.78
66752;SHT31;53663;42.676;23.238;2022-12-13T04:44:39;-0.83;73.34
66752;SHT31;53663;42.676;23.238;2022-12-13T04:47:04;-0.84;72.81
66752;SHT31;53663;42.676;23.238;2022-12-13T04:49:30;-0.85;73.37
66752;SHT31;53663;42.676;23.238;2022-12-13T04:51:55;-1.16;74.72
66752;SHT31;53663;42.676;23.238;2022-12-13T04:54:21;-1.25;75.73
66752;SHT31;53663;42.676;23.238;2022-12-13T04:56:47;-1.23;75.79
66752;SHT31;53663;42.676;23.238;2022-12-13T04:59:13;-1.31;75.77
66752;SHT31;53663;42.676;23.238;2022-12-13T05:01:38;-1.15;75.16
66752;SHT31;53663;42.676;23.238;2022-12-13T05:04:04;-1.05;75.22
66752;SHT31;53663;42.676;23.238;2022-12-13T05:06:29;-1.04;74.93
66752;SHT31;53663;42.676;23.238;2022-12-13T05:08:55;-1.05;74.58
66752;SHT31;53663;42.676;23.238;2022-12-13T05:11:20;-1.13;74.51
66752;SHT31;53663;42.676;23.238;2022-12-13T05:13:46;-1.08;74.78
66752;SHT31;53663;42.676;23.238;2022-12-13T05:16:11;-1.08;74.98
66752;SHT31;53663;42.676;23.238;2022-12-13T05:18:37;-1.06;75.18
66752;SHT31;53663;42.676;23.238;2022-12-13T05:21:05;-1.05;75.39
66752;SHT31;53663;42.676;23.238;2022-12-13T05:23:31;-1.04;75.42
66752;SHT31;53663;42.676;23.238;2022-12-13T05:25:57;-0.99;75.03
66752;SHT31;53663;42.676;23.238;2022-12-13T05:28:23;-1.02;74.87
66752;SHT31;53663;42.676;23.238;2022-12-13T05:30:51;-1.01;74.39
66752;SHT31;53663;42.676;23.238;2022-12-13T05:33:17;-1.05;74.33
66752;SHT31;53663;42.676;23.238;2022-12-13T05:35:45;-1.16;74.85
66752;SHT31;53663;42.676;23.238;2022-12-13T05:38:10;-1.26;74.89
66752;SHT31;53663;42.676;23.238;2022-12-13T05:40:36;-1.31;75.45
66752;SHT31;53663;42.676;23.238;2022-12-13T05:43:02;-1.32;75.79
66752;SHT31;53663;42.676;23.238;2022-12-13T05:45:29;-1.23;75.61
66752;SHT31;53663;42.676;23.238;2022-12-13T05:47:55;-1.20;74.94
66752;SHT31;53663;42.676;23.238;2022-12-13T05:50:20;-1.23;73.88
66752;SHT31;53663;42.676;23.238;2022-12-13T05:52:46;-1.15;73.72
66752;SHT31;53663;42.676;23.238;2022-12-13T05:55:11;-1.09;74.55
66752;SHT31;53663;42.676;23.238;2022-12-13T05:57:37;-1.02;74.98
66752;SHT31;53663;42.676;23.238;2022-12-13T06:00:06;-0.94;75.25
66752;SHT31;53663;42.676;23.238;2022-12-13T06:02:42;-0.96;75.45
66752;SHT31;53663;42.676;23.238;2022-12-13T06:05:09;-1.11;75.91
66752;SHT31;53663;42.676;23.238;2022-12-13T06:07:35;-1.06;76.33
66752;SHT31;53663;42.676;23.238;2022-12-13T06:10:01;-1.25;76.24
66752;SHT31;53663;42.676;23.238;2022-12-13T06:12:26;-1.26;76.60
66752;SHT31;53663;42.676;23.238;2022-12-13T06:14:53;-1.31;76.50
66752;SHT31;53663;42.676;23.238;2022-12-13T06:17:19;-1.43;76.86
66752;SHT31;53663;42.676;23.238;2022-12-13T06:19:46;-1.36;77.39
66752;SHT31;53663;42.676;23.238;2022-12-13T06:22:11;-1.32;76.70
66752;SHT31;53663;42.676;23.238;2022-12-13T06:24:37;-1.39;76.67
66752;SHT31;53663;42.676;23.238;2022-12-13T06:27:02;-1.33;77.13
66752;SHT31;53663;42.676;23.238;2022-12-13T06:29:29;-1.52;76.94
66752;SHT31;53663;42.676;23.238;2022-12-13T06:31:58;-1.60;77.65
66752;SHT31;53663;42.676;23.238;2022-12-13T06:34:25;-1.49;77.30
66752;SHT31;53663;42.676;23.238;2022-12-13T06:36:50;-1.49;77.59
66752;SHT31;53663;42.676;23.238;2022-12-13T06:39:16;-1.57;77.28
66752;SHT31;53663;42.676;23.238;2022-12-13T06:41:42;-1.75;77.73
66752;SHT31;53663;42.676;23.238;2022-12-13T06:44:07;-1.84;78.52
66752;SHT31;53663;42.676;23.238;2022-12-13T06:46:33;-1.75;78.09
66752;SHT31;53663;42.676;23.238;2022-12-13T06:48:59;-1.67;78.25
66752;SHT31;53663;42.676;23.238;2022-12-13T06:51:24;-1.64;77.57
66752;SHT31;53663;42.676;23.238;2022-12-13T06:53:50;-1.68;77.51
66752;SHT31;53663;42.676;23.238;2022-12-13T06:56:15;-1.57;77.36
66752;SHT31;53663;42.676;23.238;2022-12-13T06:58:41;-1.49;77.49
66752;SHT31;53663;42.676;23.238;2022-12-13T07:01:12;-1.32;76.61
66752;SHT31;53663;42.676;23.238;2022-12-13T07:03:38;-1.13;75.67
66752;SHT31;53663;42.676;23.238;2022-12-13T07:06:08;-1.01;75.81
66752;SHT31;53663;42.676;23.238;2022-12-13T07:08:35;-0.89;74.83
66752;SHT31;53663;42.676;23.238;2022-12-13T07:11:01;-0.63;73.76
66752;SHT31;53663;42.676;23.238;2022-12-13T07:13:27;-0.40;73.73
66752;SHT31;53663;42.676;23.238;2022-12-13T07:15:52;-0.15;72.46
66752;SHT31;53663;42.676;23.238;2022-12-13T07:18:18;0.13;71.62
66752;SHT31;53663;42.676;23.238;2022-12-13T07:20:44;0.50;71.31
66752;SHT31;53663;42.676;23.238;2022-12-13T07:23:10;0.73;69.60
66752;SHT31;53663;42.676;23.238;2022-12-13T07:25:36;0.95;68.30
66752;SHT31;53663;42.676;23.238;2022-12-13T07:28:04;0.88;67.90
66752;SHT31;53663;42.676;23.238;2022-12-13T07:30:36;0.97;68.44
66752;SHT31;53663;42.676;23.238;2022-12-13T07:33:03;0.91;68.37
66752;SHT31;53663;42.676;23.238;2022-12-13T07:35:30;1.01;67.81
66752;SHT31;53663;42.676;23.238;2022-12-13T07:37:57;1.25;67.61
66752;SHT31;53663;42.676;23.238;2022-12-13T07:40:22;1.28;66.99
66752;SHT31;53663;42.676;23.238;2022-12-13T07:42:52;1.42;67.05
66752;SHT31;53663;42.676;23.238;2022-12-13T07:45:19;1.32;65.39
66752;SHT31;53663;42.676;23.238;2022-12-13T07:47:45;1.28;66.58
66752;SHT31;53663;42.676;23.238;2022-12-13T07:50:11;1.48;66.77
66752;SHT31;53663;42.676;23.238;2022-12-13T07:52:36;1.46;64.11
66752;SHT31;53663;42.676;23.238;2022-12-13T07:55:02;1.69;64.94
66752;SHT31;53663;42.676;23.238;2022-12-13T07:57:29;1.64;65.43
66752;SHT31;53663;42.676;23.238;2022-12-13T07:59:55;2.01;64.92
66752;SHT31;53663;42.676;23.238;2022-12-13T08:02:21;1.83;64.84
66752;SHT31;53663;42.676;23.238;2022-12-13T08:04:46;1.70;66.53
66752;SHT31;53663;42.676;23.238;2022-12-13T08:07:12;2.06;64.03
66752;SHT31;53663;42.676;23.238;2022-12-13T08:09:38;2.29;64.33
66752;SHT31;53663;42.676;23.238;2022-12-13T08:12:04;2.53;61.32
66752;SHT31;53663;42.676;23.238;2022-12-13T08:14:29;2.37;62.76
66752;SHT31;53663;42.676;23.238;2022-12-13T08:16:56;2.08;62.59
66752;SHT31;53663;42.676;23.238;2022-12-13T08:19:21;1.80;63.92
66752;SHT31;53663;42.676;23.238;2022-12-13T08:21:47;1.50;64.98
66752;SHT31;53663;42.676;23.238;2022-12-13T08:24:13;1.52;66.23
66752;SHT31;53663;42.676;23.238;2022-12-13T08:26:38;1.55;66.11
66752;SHT31;53663;42.676;23.238;2022-12-13T08:29:04;1.59;66.70
66752;SHT31;53663;42.676;23.238;2022-12-13T08:31:30;1.64;66.10
66752;SHT31;53663;42.676;23.238;2022-12-13T08:33:56;2.04;65.28
66752;SHT31;53663;42.676;23.238;2022-12-13T08:36:21;2.73;62.33
66752;SHT31;53663;42.676;23.238;2022-12-13T08:38:54;2.65;62.22
66752;SHT31;53663;42.676;23.238;2022-12-13T08:41:20;2.86;62.30
66752;SHT31;53663;42.676;23.238;2022-12-13T08:43:46;3.20;61.94
66752;SHT31;53663;42.676;23.238;2022-12-13T08:46:11;2.82;63.76
66752;SHT31;53663;42.676;23.238;2022-12-13T08:48:37;2.37;64.46
66752;SHT31;53663;42.676;23.238;2022-12-13T08:51:09;2.56;63.84
66752;SHT31;53663;42.676;23.238;2022-12-13T08:53:36;3.10;63.45
66752;SHT31;53663;42.676;23.238;2022-12-13T08:56:04;3.59;61.97
66752;SHT31;53663;42.676;23.238;2022-12-13T08:58:30;3.23;61.22
66752;SHT31;53663;42.676;23.238;2022-12-13T09:00:56;3.52;60.88
66752;SHT31;53663;42.676;23.238;2022-12-13T09:03:22;3.66;59.23
66752;SHT31;53663;42.676;23.238;2022-12-13T09:05:47;3.87;60.45
66752;SHT31;53663;42.676;23.238;2022-12-13T09:08:13;4.36;58.94
66752;SHT31;53663;42.676;23.238;2022-12-13T09:10:39;4.81;58.32
66752;SHT31;53663;42.676;23.238;2022-12-13T09:13:05;4.67;55.10
66752;SHT31;53663;42.676;23.238;2022-12-13T09:15:31;4.11;55.37
66752;SHT31;53663;42.676;23.238;2022-12-13T09:17:57;4.51;55.39
66752;SHT31;53663;42.676;23.238;2022-12-13T09:20:23;4.91;54.85
66752;SHT31;53663;42.676;23.238;2022-12-13T09:22:49;4.65;54.52
66752;SHT31;53663;42.676;23.238;2022-12-13T09:25:15;4.73;55.62
66752;SHT31;53663;42.676;23.238;2022-12-13T09:27:41;4.99;51.87
66752;SHT31;53663;42.676;23.238;2022-12-13T09:30:08;5.08;51.11
66752;SHT31;53663;42.676;23.238;2022-12-13T09:32:40;5.40;52.76
66752;SHT31;53663;42.676;23.238;2022-12-13T09:35:06;5.67;52.37
66752;SHT31;53663;42.676;23.238;2022-12-13T09:37:32;5.81;49.36
66752;SHT31;53663;42.676;23.238;2022-12-13T09:39:57;5.15;51.80
66752;SHT31;53663;42.676;23.238;2022-12-13T09:42:25;5.44;51.81
66752;SHT31;53663;42.676;23.238;2022-12-13T09:44:53;5.65;52.45
66752;SHT31;53663;42.676;23.238;2022-12-13T09:47:46;5.91;51.57
66752;SHT31;53663;42.676;23.238;2022-12-13T09:50:32;5.79;49.54
66752;SHT31;53663;42.676;23.238;2022-12-13T09:53:04;5.75;49.89
66752;SHT31;53663;42.676;23.238;2022-12-13T09:55:42;5.36;52.22
66752;SHT31;53663;42.676;23.238;2022-12-13T09:58:25;5.05;51.69
66752;SHT31;53663;42.676;23.238;2022-12-13T10:00:53;5.60;54.81
66752;SHT31;53663;42.676;23.238;2022-12-13T10:03:21;5.54;51.03
66752;SHT31;53663;42.676;23.238;2022-12-13T10:05:57;5.12;50.06
66752;SHT31;53663;42.676;23.238;2022-12-13T10:08:33;4.68;51.05
66752;SHT31;53663;42.676;23.238;2022-12-13T10:10:59;5.18;50.97
66752;SHT31;53663;42.676;23.238;2022-12-13T10:16:06;5.50;51.63
66752;SHT31;53663;42.676;23.238;2022-12-13T10:18:35;5.26;49.35
66752;SHT31;53663;42.676;23.238;2022-12-13T10:21:06;5.30;49.89
66752;SHT31;53663;42.676;23.238;2022-12-13T10:23:32;5.36;50.56
66752;SHT31;53663;42.676;23.238;2022-12-13T10:25:57;5.57;48.74
66752;SHT31;53663;42.676;23.238;2022-12-13T10:28:26;5.26;50.25
66752;SHT31;53663;42.676;23.238;2022-12-13T10:30:52;4.95;50.81
66752;SHT31;53663;42.676;23.238;2022-12-13T10:33:24;5.33;52.05
66752;SHT31;53663;42.676;23.238;2022-12-13T10:38:40;5.70;48.60
66752;SHT31;53663;42.676;23.238;2022-12-13T10:41:44;5.61;49.51
66752;SHT31;53663;42.676;23.238;2022-12-13T10:49:28;4.85;49.58
66752;SHT31;53663;42.676;23.238;2022-12-13T10:51:57;4.25;51.09
66752;SHT31;53663;42.676;23.238;2022-12-13T10:54:28;4.04;53.31
66752;SHT31;53663;42.676;23.238;2022-12-13T10:56:55;4.30;54.26
66752;SHT31;53663;42.676;23.238;2022-12-13T10:59:33;4.44;54.34
66752;SHT31;53663;42.676;23.238;2022-12-13T11:02:01;4.41;54.85
66752;SHT31;53663;42.676;23.238;2022-12-13T11:04:43;4.43;54.07
66752;SHT31;53663;42.676;23.238;2022-12-13T11:07:25;4.75;55.27
66752;SHT31;53663;42.676;23.238;2022-12-13T11:09:51;5.18;54.56
66752;SHT31;53663;42.676;23.238;2022-12-13T11:12:23;5.31;51.24
66752;SHT31;53663;42.676;23.238;2022-12-13T11:14:59;5.23;49.98
66752;SHT31;53663;42.676;23.238;2022-12-13T11:17:28;4.96;52.70
66752;SHT31;53663;42.676;23.238;2022-12-13T11:19:57;5.12;53.50
66752;SHT31;53663;42.676;23.238;2022-12-13T11:22:34;5.26;52.27
66752;SHT31;53663;42.676;23.238;2022-12-13T11:25:05;5.33;52.02
66752;SHT31;53663;42.676;23.238;2022-12-13T11:41:41;4.79;53.96
66752;SHT31;53663;42.676;23.238;2022-12-13T11:46:56;5.18;54.48
66752;SHT31;53663;42.676;23.238;2022-12-13T11:49:51;5.13;53.77
66752;SHT31;53663;42.676;23.238;2022-12-13T11:52:27;4.97;51.80
66752;SHT31;53663;42.676;23.238;2022-12-13T11:54:58;4.97;54.86
66752;SHT31;53663;42.676;23.238;2022-12-13T11:57:38;5.43;52.47
66752;SHT31;53663;42.676;23.238;2022-12-13T12:00:29;5.60;53.06
66752;SHT31;53663;42.676;23.238;2022-12-13T12:03:34;5.52;52.88
66752;SHT31;53663;42.676;23.238;2022-12-13T12:06:08;5.57;53.06
66752;SHT31;53663;42.676;23.238;2022-12-13T12:08:58;5.72;52.16
66752;SHT31;53663;42.676;23.238;2022-12-13T12:14:18;5.67;51.67
66752;SHT31;53663;42.676;23.238;2022-12-13T12:19:14;5.67;50.63
66752;SHT31;53663;42.676;23.238;2022-12-13T12:24:26;5.78;50.86
66752;SHT31;53663;42.676;23.238;2022-12-13T12:43:41;4.33;54.71
66752;SHT31;53663;42.676;23.238;2022-12-13T12:46:45;4.44;55.48
66752;SHT31;53663;42.676;23.238;2022-12-13T12:52:03;4.30;55.31
66752;SHT31;53663;42.676;23.238;2022-12-13T13:00:20;4.17;53.39
66752;SHT31;53663;42.676;23.238;2022-12-13T13:03:05;3.86;55.06
66752;SHT31;53663;42.676;23.238;2022-12-13T13:05:39;3.58;56.29
66752;SHT31;53663;42.676;23.238;2022-12-13T13:10:43;4.11;55.80
66752;SHT31;53663;42.676;23.238;2022-12-13T13:16:35;4.18;55.13
66752;SHT31;53663;42.676;23.238;2022-12-13T13:19:38;4.13;54.89
66752;SHT31;53663;42.676;23.238;2022-12-13T13:21:54;3.89;55.16
66752;SHT31;53663;42.676;23.238;2022-12-13T13:24:30;3.54;56.32
66752;SHT31;53663;42.676;23.238;2022-12-13T13:29:39;3.07;58.06
66752;SHT31;53663;42.676;23.238;2022-12-13T13:32:23;3.01;59.33
66752;SHT31;53663;42.676;23.238;2022-12-13T13:34:51;2.99;59.27
66752;SHT31;53663;42.676;23.238;2022-12-13T13:45:27;2.69;60.22
66752;SHT31;53663;42.676;23.238;2022-12-13T13:48:14;2.63;60.77
66752;SHT31;53663;42.676;23.238;2022-12-13T13:53:44;2.49;62.70
66752;SHT31;53663;42.676;23.238;2022-12-13T14:02:24;2.67;61.33
66752;SHT31;53663;42.676;23.238;2022-12-13T14:22:18;2.31;63.83
66752;SHT31;53663;42.676;23.238;2022-12-13T14:30:56;2.27;60.02
66752;SHT31;53663;42.676;23.238;2022-12-13T14:33:23;2.01;60.93
66752;SHT31;53663;42.676;23.238;2022-12-13T14:35:51;1.70;61.55
66752;SHT31;53663;42.676;23.238;2022-12-13T14:38:22;1.25;63.62
66752;SHT31;53663;42.676;23.238;2022-12-13T14:40:54;0.90;65.03
66752;SHT31;53663;42.676;23.238;2022-12-13T14:45:56;0.94;65.45
66752;SHT31;53663;42.676;23.238;2022-12-13T14:48:22;0.76;67.53
66752;SHT31;53663;42.676;23.238;2022-12-13T14:50:49;0.79;68.42
66752;SHT31;53663;42.676;23.238;2022-12-13T14:53:25;0.90;68.05
66752;SHT31;53663;42.676;23.238;2022-12-13T14:58:34;1.48;67.50
66752;SHT31;53663;42.676;23.238;2022-12-13T15:01:03;1.53;66.92
66752;SHT31;53663;42.676;23.238;2022-12-13T15:03:29;1.62;67.72
66752;SHT31;53663;42.676;23.238;2022-12-13T15:05:59;1.67;66.88
66752;SHT31;53663;42.676;23.238;2022-12-13T15:08:25;1.80;66.07
66752;SHT31;53663;42.676;23.238;2022-12-13T15:10:57;1.76;65.93
66752;SHT31;53663;42.676;23.238;2022-12-13T15:15:57;1.64;67.63
66752;SHT31;53663;42.676;23.238;2022-12-13T15:18:32;1.69;68.03
66752;SHT31;53663;42.676;23.238;2022-12-13T15:21:02;1.73;68.17
66752;SHT31;53663;42.676;23.238;2022-12-13T15:23:37;1.77;68.88
66752;SHT31;53663;42.676;23.238;2022-12-13T15:26:13;1.76;69.52
66752;SHT31;53663;42.676;23.238;2022-12-13T15:28:42;1.76;68.87
66752;SHT31;53663;42.676;23.238;2022-12-13T15:31:09;1.79;67.90
66752;SHT31;53663;42.676;23.238;2022-12-13T15:33:35;1.73;68.15
66752;SHT31;53663;42.676;23.238;2022-12-13T15:38:36;1.63;68.52
66752;SHT31;53663;42.676;23.238;2022-12-13T15:41:04;1.62;69.02
66752;SHT31;53663;42.676;23.238;2022-12-13T15:43:41;1.59;68.59
66752;SHT31;53663;42.676;23.238;2022-12-13T15:46:07;1.24;69.89
66752;SHT31;53663;42.676;23.238;2022-12-13T15:48:42;1.39;70.15
66752;SHT31;53663;42.676;23.238;2022-12-13T15:51:15;1.55;69.70
66752;SHT31;53663;42.676;23.238;2022-12-13T15:59:01;1.31;69.75
66752;SHT31;53663;42.676;23.238;2022-12-13T16:01:33;1.25;69.80
66752;SHT31;53663;42.676;23.238;2022-12-13T16:03:59;1.31;70.10
66752;SHT31;53663;42.676;23.238;2022-12-13T16:06:28;1.34;70.16
66752;SHT31;53663;42.676;23.238;2022-12-13T16:08:58;1.34;69.40
66752;SHT31;53663;42.676;23.238;2022-12-13T16:11:37;1.50;68.08
66752;SHT31;53663;42.676;23.238;2022-12-13T16:16:55;0.84;70.70
66752;SHT31;53663;42.676;23.238;2022-12-13T16:19:22;0.43;71.88
66752;SHT31;53663;42.676;23.238;2022-12-13T16:21:47;0.39;72.24
66752;SHT31;53663;42.676;23.238;2022-12-13T16:24:13;0.43;72.23
66752;SHT31;53663;42.676;23.238;2022-12-13T16:26:46;0.62;71.33
66752;SHT31;53663;42.676;23.238;2022-12-13T16:29:13;0.56;71.92
66752;SHT31;53663;42.676;23.238;2022-12-13T16:31:41;0.32;72.53
66752;SHT31;53663;42.676;23.238;2022-12-13T16:34:07;0.08;73.13
66752;SHT31;53663;42.676;23.238;2022-12-13T16:36:33;-0.19;74.30
66752;SHT31;53663;42.676;23.238;2022-12-13T16:38:59;-0.19;74.81
66752;SHT31;53663;42.676;23.238;2022-12-13T16:41:25;0.26;74.40
66752;SHT31;53663;42.676;23.238;2022-12-13T16:43:54;0.45;73.78
66752;SHT31;53663;42.676;23.238;2022-12-13T16:46:21;0.59;73.30
66752;SHT31;53663;42.676;23.238;2022-12-13T16:48:47;0.64;73.93
66752;SHT31;53663;42.676;23.238;2022-12-13T16:51:12;0.67;73.07
66752;SHT31;53663;42.676;23.238;2022-12-13T16:53:38;0.84;73.08
66752;SHT31;53663;42.676;23.238;2022-12-13T16:56:03;0.83;73.39
66752;SHT31;53663;42.676;23.238;2022-12-13T16:58:29;0.91;73.00
66752;SHT31;53663;42.676;23.238;2022-12-13T17:00:54;0.92;73.83
66752;SHT31;53663;42.676;23.238;2022-12-13T17:03:21;0.98;73.22
66752;SHT31;53663;42.676;23.238;2022-12-13T17:05:47;1.04;72.04
66752;SHT31;53663;42.676;23.238;2022-12-13T17:08:13;1.07;71.96
66752;SHT31;53663;42.676;23.238;2022-12-13T17:10:40;1.07;72.50
66752;SHT31;53663;42.676;23.238;2022-12-13T17:13:07;1.17;71.26
66752;SHT31;53663;42.676;23.238;2022-12-13T17:15:32;1.14;70.77
66752;SHT31;53663;42.676;23.238;2022-12-13T17:17:58;1.00;70.87
66752;SHT31;53663;42.676;23.238;2022-12-13T17:20:25;0.71;73.08
66752;SHT31;53663;42.676;23.238;2022-12-13T17:22:51;0.69;73.43
66752;SHT31;53663;42.676;23.238;2022-12-13T17:25:17;0.90;73.62
66752;SHT31;53663;42.676;23.238;2022-12-13T17:27:42;0.87;73.51
66752;SHT31;53663;42.676;23.238;2022-12-13T17:30:13;0.76;71.84
66752;SHT31;53663;42.676;23.238;2022-12-13T17:32:39;0.74;72.39
66752;SHT31;53663;42.676;23.238;2022-12-13T17:35:05;0.49;71.86
66752;SHT31;53663;42.676;23.238;2022-12-13T17:37:30;0.62;72.39
66752;SHT31;53663;42.676;23.238;2022-12-13T17:39:56;0.74;72.10
66752;SHT31;53663;42.676;23.238;2022-12-13T17:42:22;0.62;73.16
66752;SHT31;53663;42.676;23.238;2022-12-13T17:44:47;0.62;73.34
66752;SHT31;53663;42.676;23.238;2022-12-13T17:47:12;0.66;72.51
66752;SHT31;53663;42.676;23.238;2022-12-13T17:49:38;0.64;73.06
66752;SHT31;53663;42.676;23.238;2022-12-13T17:52:04;0.71;73.32
66752;SHT31;53663;42.676;23.238;2022-12-13T17:54:29;0.84;73.18
66752;SHT31;53663;42.676;23.238;2022-12-13T17:56:55;0.97;72.97
66752;SHT31;53663;42.676;23.238;2022-12-13T17:59:21;1.14;71.92
66752;SHT31;53663;42.676;23.238;2022-12-13T18:01:47;1.04;72.46
66752;SHT31;53663;42.676;23.238;2022-12-13T18:04:13;1.02;72.95
66752;SHT31;53663;42.676;23.238;2022-12-13T18:06:40;0.50;74.58
66752;SHT31;53663;42.676;23.238;2022-12-13T18:09:07;0.50;74.86
66752;SHT31;53663;42.676;23.238;2022-12-13T18:11:33;0.38;76.04
66752;SHT31;53663;42.676;23.238;2022-12-13T18:14:00;0.22;75.65